sensor_id;sensor_type;location;lat;lon;timestamp;pressure;altitude;pressure_sealevel;temperature;humidity
46464;BME280;32161;48.148;-1.554;2023-08-06T00:01:39;101033.22;;;15.75;87.54
46464;BME280;32161;48.148;-1.554;2023-08-06T00:04:06;101037.13;;;15.79;87.60
46464;BME280;32161;48.148;-1.554;2023-08-06T00:06:34;101038.16;;;15.73;87.78
46464;BME280;32161;48.148;-1.554;2023-08-06T00:09:03;101037.44;;;15.83;87.74
46464;BME280;32161;48.148;-1.554;2023-08-06T00:11:31;101043.72;;;15.83;87.87
46464;BME280;32161;48.148;-1.554;2023-08-06T00:13:58;101051.72;;;15.85;87.94
46464;BME280;32161;48.148;-1.554;2023-08-06T00:16:26;101051.44;;;15.86;88.19
46464;BME280;32161;48.148;-1.554;2023-08-06T00:18:53;101061.59;;;15.86;88.29
46464;BME280;32161;48.148;-1.554;2023-08-06T00:21:21;101057.50;;;15.89;88.04
46464;BME280;32161;48.148;-1.554;2023-08-06T00:23:48;101065.47;;;15.90;88.61
46464;BME280;32161;48.148;-1.554;2023-08-06T00:26:17;101076.19;;;15.92;88.36
46464;BME280;32161;48.148;-1.554;2023-08-06T00:28:45;101067.13;;;15.91;88.75
46464;BME280;32161;48.148;-1.554;2023-08-06T00:31:13;101065.16;;;15.86;89.29
46464;BME280;32161;48.148;-1.554;2023-08-06T00:33:40;101069.03;;;15.91;89.11
46464;BME280;32161;48.148;-1.554;2023-08-06T00:36:08;101069.03;;;15.91;89.32
46464;BME280;32161;48.148;-1.554;2023-08-06T00:38:35;101060.75;;;15.85;89.52
46464;BME280;32161;48.148;-1.554;2023-08-06T00:41:03;101060.50;;;15.87;89.63
46464;BME280;32161;48.148;-1.554;2023-08-06T00:43:32;101064.13;;;15.93;89.70
46464;BME280;32161;48.148;-1.554;2023-08-06T00:46:00;101059.13;;;15.84;89.96
46464;BME280;32161;48.148;-1.554;2023-08-06T00:48:27;101063.78;;;15.84;90.24
46464;BME280;32161;48.148;-1.554;2023-08-06T00:50:55;101059.13;;;15.84;90.51
46464;BME280;32161;48.148;-1.554;2023-08-06T00:53:23;101065.16;;;15.86;90.46
46464;BME280;32161;48.148;-1.554;2023-08-06T00:55:50;101068.72;;;15.87;90.37
46464;BME280;32161;48.148;-1.554;2023-08-06T00:58:19;101069.50;;;15.82;90.69
46464;BME280;32161;48.148;-1.554;2023-08-06T01:00:48;101069.00;;;15.85;90.63
46464;BME280;32161;48.148;-1.554;2023-08-06T01:03:15;101084.28;;;15.81;90.59
46464;BME280;32161;48.148;-1.554;2023-08-06T01:05:43;101083.16;;;15.77;90.87
46464;BME280;32161;48.148;-1.554;2023-08-06T01:08:23;101089.97;;;15.75;91.16
46464;BME280;32161;48.148;-1.554;2023-08-06T01:11:11;101094.63;;;15.74;91.53
46464;BME280;32161;48.148;-1.554;2023-08-06T01:13:44;101099.00;;;15.75;91.75
46464;BME280;32161;48.148;-1.554;2023-08-06T01:16:15;101115.91;;;15.67;92.04
46464;BME280;32161;48.148;-1.554;2023-08-06T01:18:44;101109.94;;;15.70;92.28
46464;BME280;32161;48.148;-1.554;2023-08-06T01:21:16;101116.38;;;15.64;92.61
46464;BME280;32161;48.148;-1.554;2023-08-06T01:23:45;101108.38;;;15.57;92.86
46464;BME280;32161;48.148;-1.554;2023-08-06T01:26:19;101117.59;;;15.51;92.78
46464;BME280;32161;48.148;-1.554;2023-08-06T01:28:56;101111.78;;;15.48;93.15
46464;BME280;32161;48.148;-1.554;2023-08-06T01:31:30;101116.44;;;15.47;92.99
46464;BME280;32161;48.148;-1.554;2023-08-06T01:33:59;101117.88;;;15.50;92.98
46464;BME280;32161;48.148;-1.554;2023-08-06T01:36:30;101116.91;;;15.39;93.22
46464;BME280;32161;48.148;-1.554;2023-08-06T01:38:58;101110.59;;;15.38;93.11
46464;BME280;32161;48.148;-1.554;2023-08-06T01:41:26;101120.84;;;15.26;94.03
46464;BME280;32161;48.148;-1.554;2023-08-06T01:43:54;101120.25;;;15.24;94.14
46464;BME280;32161;48.148;-1.554;2023-08-06T01:46:21;101120.13;;;15.36;93.79
46464;BME280;32161;48.148;-1.554;2023-08-06T01:48:49;101115.34;;;15.26;93.63
46464;BME280;32161;48.148;-1.554;2023-08-06T01:51:16;101120.19;;;15.41;93.32
46464;BME280;32161;48.148;-1.554;2023-08-06T01:53:45;101124.91;;;15.24;93.59
46464;BME280;32161;48.148;-1.554;2023-08-06T01:56:13;101125.28;;;15.32;93.82
46464;BME280;32161;48.148;-1.554;2023-08-06T01:58:40;101131.09;;;15.36;93.44
46464;BME280;32161;48.148;-1.554;2023-08-06T02:01:08;101128.63;;;15.34;93.67
46464;BME280;32161;48.148;-1.554;2023-08-06T02:03:35;101129.94;;;15.32;93.52
46464;BME280;32161;48.148;-1.554;2023-08-06T02:06:03;101126.31;;;15.26;93.53
46464;BME280;32161;48.148;-1.554;2023-08-06T02:08:30;101129.31;;;15.08;94.45
46464;BME280;32161;48.148;-1.554;2023-08-06T02:11:00;101134.97;;;15.01;95.46
46464;BME280;32161;48.148;-1.554;2023-08-06T02:13:28;101133.16;;;15.07;95.68
46464;BME280;32161;48.148;-1.554;2023-08-06T02:15:56;101140.69;;;15.00;95.70
46464;BME280;32161;48.148;-1.554;2023-08-06T02:18:23;101139.53;;;14.96;95.75
46464;BME280;32161;48.148;-1.554;2023-08-06T02:20:58;101147.22;;;14.99;95.63
46464;BME280;32161;48.148;-1.554;2023-08-06T02:23:26;101140.25;;;14.91;96.01
46464;BME280;32161;48.148;-1.554;2023-08-06T02:26:00;101141.34;;;14.90;96.56
46464;BME280;32161;48.148;-1.554;2023-08-06T02:28:28;101146.94;;;14.95;96.54
46464;BME280;32161;48.148;-1.554;2023-08-06T02:30:56;101137.13;;;14.99;96.52
46464;BME280;32161;48.148;-1.554;2023-08-06T02:33:24;101135.78;;;15.02;96.07
46464;BME280;32161;48.148;-1.554;2023-08-06T02:35:58;101129.81;;;15.05;96.31
46464;BME280;32161;48.148;-1.554;2023-08-06T02:38:25;101138.19;;;14.98;96.02
46464;BME280;32161;48.148;-1.554;2023-08-06T02:40:53;101133.53;;;14.99;96.66
46464;BME280;32161;48.148;-1.554;2023-08-06T02:43:22;101141.25;;;15.02;96.54
46464;BME280;32161;48.148;-1.554;2023-08-06T02:45:49;101144.50;;;14.99;96.41
46464;BME280;32161;48.148;-1.554;2023-08-06T02:48:17;101150.56;;;15.01;96.64
46464;BME280;32161;48.148;-1.554;2023-08-06T02:50:45;101134.13;;;15.01;96.92
46464;BME280;32161;48.148;-1.554;2023-08-06T02:53:12;101142.69;;;15.04;96.44
46464;BME280;32161;48.148;-1.554;2023-08-06T02:55:46;101143.78;;;15.03;96.35
46464;BME280;32161;48.148;-1.554;2023-08-06T02:58:14;101144.34;;;15.05;96.57
46464;BME280;32161;48.148;-1.554;2023-08-06T03:00:44;101149.75;;;15.00;96.97
46464;BME280;32161;48.148;-1.554;2023-08-06T03:03:11;101155.22;;;15.00;96.97
46464;BME280;32161;48.148;-1.554;2023-08-06T03:05:39;101153.56;;;14.99;97.12
46464;BME280;32161;48.148;-1.554;2023-08-06T03:08:06;101154.53;;;14.93;97.51
46464;BME280;32161;48.148;-1.554;2023-08-06T03:10:34;101159.28;;;14.98;97.11
46464;BME280;32161;48.148;-1.554;2023-08-06T03:13:02;101165.91;;;15.02;97.11
46464;BME280;32161;48.148;-1.554;2023-08-06T03:15:29;101159.19;;;14.93;97.55
46464;BME280;32161;48.148;-1.554;2023-08-06T03:17:58;101152.63;;;14.94;97.65
46464;BME280;32161;48.148;-1.554;2023-08-06T03:20:26;101147.75;;;14.96;97.55
46464;BME280;32161;48.148;-1.554;2023-08-06T03:22:53;101157.88;;;14.95;97.27
46464;BME280;32161;48.148;-1.554;2023-08-06T03:25:21;101148.25;;;14.93;97.77
46464;BME280;32161;48.148;-1.554;2023-08-06T03:27:48;101155.97;;;14.96;97.42
46464;BME280;32161;48.148;-1.554;2023-08-06T03:30:16;101160.84;;;14.94;97.38
46464;BME280;32161;48.148;-1.554;2023-08-06T03:32:44;101159.75;;;14.95;97.17
46464;BME280;32161;48.148;-1.554;2023-08-06T03:35:15;101161.44;;;14.96;97.06
46464;BME280;32161;48.148;-1.554;2023-08-06T03:37:42;101158.72;;;14.96;97.11
46464;BME280;32161;48.148;-1.554;2023-08-06T03:40:11;101167.97;;;14.95;97.35
46464;BME280;32161;48.148;-1.554;2023-08-06T03:42:38;101158.59;;;14.90;97.33
46464;BME280;32161;48.148;-1.554;2023-08-06T03:45:07;101158.25;;;14.87;97.71
46464;BME280;32161;48.148;-1.554;2023-08-06T03:47:35;101161.59;;;14.89;97.80
46464;BME280;32161;48.148;-1.554;2023-08-06T03:50:03;101164.34;;;14.89;97.58
46464;BME280;32161;48.148;-1.554;2023-08-06T03:52:33;101164.59;;;14.87;97.53
46464;BME280;32161;48.148;-1.554;2023-08-06T03:55:00;101165.66;;;14.86;97.70
46464;BME280;32161;48.148;-1.554;2023-08-06T03:57:28;101169.81;;;14.89;97.75
46464;BME280;32161;48.148;-1.554;2023-08-06T03:59:56;101177.69;;;14.85;97.92
46464;BME280;32161;48.148;-1.554;2023-08-06T04:02:23;101177.94;;;14.84;98.15
46464;BME280;32161;48.148;-1.554;2023-08-06T04:04:51;101175.44;;;14.82;98.11
46464;BME280;32161;48.148;-1.554;2023-08-06T04:07:19;101175.44;;;14.82;98.29
46464;BME280;32161;48.148;-1.554;2023-08-06T04:09:57;101184.81;;;14.86;98.38
46464;BME280;32161;48.148;-1.554;2023-08-06T04:12:25;101180.69;;;14.84;97.84
46464;BME280;32161;48.148;-1.554;2023-08-06T04:14:54;101174.88;;;14.80;98.33
46464;BME280;32161;48.148;-1.554;2023-08-06T04:17:22;101183.09;;;14.80;98.60
46464;BME280;32161;48.148;-1.554;2023-08-06T04:19:52;101180.44;;;14.85;99.21
46464;BME280;32161;48.148;-1.554;2023-08-06T04:22:21;101184.13;;;14.79;98.54
46464;BME280;32161;48.148;-1.554;2023-08-06T04:24:48;101177.50;;;14.75;99.16
46464;BME280;32161;48.148;-1.554;2023-08-06T04:27:19;101193.91;;;14.75;99.48
46464;BME280;32161;48.148;-1.554;2023-08-06T04:29:46;101190.38;;;14.75;99.61
46464;BME280;32161;48.148;-1.554;2023-08-06T04:32:14;101190.63;;;14.73;99.64
46464;BME280;32161;48.148;-1.554;2023-08-06T04:34:42;101186.78;;;14.74;99.96
46464;BME280;32161;48.148;-1.554;2023-08-06T04:37:10;101180.50;;;14.74;99.87
46464;BME280;32161;48.148;-1.554;2023-08-06T04:39:38;101183.22;;;14.74;99.67
46464;BME280;32161;48.148;-1.554;2023-08-06T04:42:06;101191.19;;;14.75;99.23
46464;BME280;32161;48.148;-1.554;2023-08-06T04:44:35;101198.81;;;14.73;99.70
46464;BME280;32161;48.148;-1.554;2023-08-06T04:47:03;101200.97;;;14.71;99.21
46464;BME280;32161;48.148;-1.554;2023-08-06T04:49:30;101200.63;;;14.68;99.71
46464;BME280;32161;48.148;-1.554;2023-08-06T04:51:58;101209.34;;;14.64;100.00
46464;BME280;32161;48.148;-1.554;2023-08-06T04:54:26;101218.38;;;14.65;100.00
46464;BME280;32161;48.148;-1.554;2023-08-06T04:56:53;101217.56;;;14.64;100.00
46464;BME280;32161;48.148;-1.554;2023-08-06T04:59:21;101218.97;;;14.67;100.00
46464;BME280;32161;48.148;-1.554;2023-08-06T05:01:50;101227.16;;;14.67;99.91
46464;BME280;32161;48.148;-1.554;2023-08-06T05:04:17;101227.16;;;14.67;99.70
46464;BME280;32161;48.148;-1.554;2023-08-06T05:06:45;101227.44;;;14.65;99.39
46464;BME280;32161;48.148;-1.554;2023-08-06T05:09:12;101226.00;;;14.63;99.51
46464;BME280;32161;48.148;-1.554;2023-08-06T05:11:40;101239.69;;;14.63;99.29
46464;BME280;32161;48.148;-1.554;2023-08-06T05:14:07;101235.78;;;14.59;99.75
46464;BME280;32161;48.148;-1.554;2023-08-06T05:16:35;101228.66;;;14.58;100.00
46464;BME280;32161;48.148;-1.554;2023-08-06T05:19:04;101235.78;;;14.59;100.00
46464;BME280;32161;48.148;-1.554;2023-08-06T05:21:31;101231.59;;;14.56;100.00
46464;BME280;32161;48.148;-1.554;2023-08-06T05:23:59;101234.34;;;14.56;100.00
46464;BME280;32161;48.148;-1.554;2023-08-06T05:26:26;101243.16;;;14.58;100.00
46464;BME280;32161;48.148;-1.554;2023-08-06T05:28:54;101242.91;;;14.60;100.00
46464;BME280;32161;48.148;-1.554;2023-08-06T05:31:21;101242.31;;;14.58;100.00
46464;BME280;32161;48.148;-1.554;2023-08-06T05:33:49;101252.78;;;14.61;100.00
46464;BME280;32161;48.148;-1.554;2023-08-06T05:36:18;101253.13;;;14.64;100.00
46464;BME280;32161;48.148;-1.554;2023-08-06T05:38:45;101265.94;;;14.64;100.00
46464;BME280;32161;48.148;-1.554;2023-08-06T05:41:13;101262.16;;;14.65;100.00
46464;BME280;32161;48.148;-1.554;2023-08-06T05:43:41;101265.13;;;14.63;100.00
46464;BME280;32161;48.148;-1.554;2023-08-06T05:46:08;101264.56;;;14.61;100.00
46464;BME280;32161;48.148;-1.554;2023-08-06T05:48:36;101267.28;;;14.61;100.00
46464;BME280;32161;48.148;-1.554;2023-08-06T05:51:03;101275.72;;;14.60;100.00
46464;BME280;32161;48.148;-1.554;2023-08-06T05:53:32;101276.34;;;14.62;100.00
46464;BME280;32161;48.148;-1.554;2023-08-06T05:56:00;101273.94;;;14.65;100.00
46464;BME280;32161;48.148;-1.554;2023-08-06T05:58:27;101282.72;;;14.68;100.00
46464;BME280;32161;48.148;-1.554;2023-08-06T06:00:56;101287.13;;;14.69;100.00
46464;BME280;32161;48.148;-1.554;2023-08-06T06:03:24;101294.59;;;14.73;100.00
46464;BME280;32161;48.148;-1.554;2023-08-06T06:05:51;101291.72;;;14.80;100.00
46464;BME280;32161;48.148;-1.554;2023-08-06T06:08:19;101303.00;;;14.83;100.00
46464;BME280;32161;48.148;-1.554;2023-08-06T06:10:48;101288.00;;;14.86;100.00
46464;BME280;32161;48.148;-1.554;2023-08-06T06:13:15;101303.69;;;14.90;100.00
46464;BME280;32161;48.148;-1.554;2023-08-06T06:15:43;101314.47;;;14.97;100.00
46464;BME280;32161;48.148;-1.554;2023-08-06T06:18:10;101323.03;;;15.01;100.00
46464;BME280;32161;48.148;-1.554;2023-08-06T06:20:38;101314.56;;;15.02;100.00
46464;BME280;32161;48.148;-1.554;2023-08-06T06:23:05;101315.50;;;15.08;100.00
46464;BME280;32161;48.148;-1.554;2023-08-06T06:25:33;101316.06;;;15.10;100.00
46464;BME280;32161;48.148;-1.554;2023-08-06T06:28:02;101329.28;;;15.13;100.00
46464;BME280;32161;48.148;-1.554;2023-08-06T06:30:30;101331.28;;;15.18;100.00
46464;BME280;32161;48.148;-1.554;2023-08-06T06:32:57;101331.03;;;15.19;100.00
46464;BME280;32161;48.148;-1.554;2023-08-06T06:35:25;101339.59;;;15.23;100.00
46464;BME280;32161;48.148;-1.554;2023-08-06T06:37:52;101342.91;;;15.25;100.00
46464;BME280;32161;48.148;-1.554;2023-08-06T06:40:20;101330.97;;;15.31;100.00
46464;BME280;32161;48.148;-1.554;2023-08-06T06:42:47;101334.47;;;15.26;100.00
46464;BME280;32161;48.148;-1.554;2023-08-06T06:45:17;101336.94;;;15.11;100.00
46464;BME280;32161;48.148;-1.554;2023-08-06T06:47:44;101340.66;;;15.22;100.00
46464;BME280;32161;48.148;-1.554;2023-08-06T06:50:12;101342.75;;;15.31;100.00
46464;BME280;32161;48.148;-1.554;2023-08-06T06:52:40;101346.50;;;15.42;100.00
46464;BME280;32161;48.148;-1.554;2023-08-06T06:55:09;101356.91;;;15.57;100.00
46464;BME280;32161;48.148;-1.554;2023-08-06T06:57:36;101353.56;;;15.55;100.00
46464;BME280;32161;48.148;-1.554;2023-08-06T07:00:05;101358.91;;;15.61;100.00
46464;BME280;32161;48.148;-1.554;2023-08-06T07:02:34;101360.16;;;15.71;100.00
46464;BME280;32161;48.148;-1.554;2023-08-06T07:05:02;101373.72;;;15.77;100.00
46464;BME280;32161;48.148;-1.554;2023-08-06T07:07:30;101360.66;;;15.84;100.00
46464;BME280;32161;48.148;-1.554;2023-08-06T07:09:57;101363.53;;;15.95;100.00
46464;BME280;32161;48.148;-1.554;2023-08-06T07:12:25;101368.78;;;15.96;100.00
46464;BME280;32161;48.148;-1.554;2023-08-06T07:14:52;101374.50;;;15.95;100.00
46464;BME280;32161;48.148;-1.554;2023-08-06T07:17:20;101366.28;;;15.95;100.00
46464;BME280;32161;48.148;-1.554;2023-08-06T07:19:49;101374.25;;;16.13;100.00
46464;BME280;32161;48.148;-1.554;2023-08-06T07:22:16;101377.00;;;16.13;100.00
46464;BME280;32161;48.148;-1.554;2023-08-06T07:24:44;101372.38;;;16.35;100.00
46464;BME280;32161;48.148;-1.554;2023-08-06T07:27:11;101368.31;;;16.21;100.00
46464;BME280;32161;48.148;-1.554;2023-08-06T07:29:39;101381.09;;;16.32;100.00
46464;BME280;32161;48.148;-1.554;2023-08-06T07:32:07;101373.34;;;16.46;100.00
46464;BME280;32161;48.148;-1.554;2023-08-06T07:34:35;101366.59;;;16.54;100.00
46464;BME280;32161;48.148;-1.554;2023-08-06T07:37:04;101373.50;;;16.78;100.00
46464;BME280;32161;48.148;-1.554;2023-08-06T07:39:33;101375.28;;;16.90;100.00
46464;BME280;32161;48.148;-1.554;2023-08-06T07:42:00;101378.41;;;16.98;100.00
46464;BME280;32161;48.148;-1.554;2023-08-06T07:44:28;101380.13;;;17.04;100.00
46464;BME280;32161;48.148;-1.554;2023-08-06T07:46:56;101377.09;;;17.06;100.00
46464;BME280;32161;48.148;-1.554;2023-08-06T07:49:23;101367.53;;;17.08;100.00
46464;BME280;32161;48.148;-1.554;2023-08-06T07:51:51;101374.44;;;17.11;100.00
46464;BME280;32161;48.148;-1.554;2023-08-06T07:54:20;101377.28;;;17.21;100.00
46464;BME280;32161;48.148;-1.554;2023-08-06T07:56:48;101368.88;;;17.33;100.00
46464;BME280;32161;48.148;-1.554;2023-08-06T07:59:16;101372.06;;;17.52;99.17
46464;BME280;32161;48.148;-1.554;2023-08-06T08:01:43;101374.88;;;17.57;100.00
46464;BME280;32161;48.148;-1.554;2023-08-06T08:04:11;101371.06;;;17.63;98.34
46464;BME280;32161;48.148;-1.554;2023-08-06T08:06:38;101380.44;;;17.67;99.11
46464;BME280;32161;48.148;-1.554;2023-08-06T08:09:06;101377.84;;;17.83;98.61
46464;BME280;32161;48.148;-1.554;2023-08-06T08:11:35;101376.28;;;17.92;99.29
46464;BME280;32161;48.148;-1.554;2023-08-06T08:14:02;101376.66;;;18.05;96.94
46464;BME280;32161;48.148;-1.554;2023-08-06T08:16:30;101376.44;;;18.12;92.21
46464;BME280;32161;48.148;-1.554;2023-08-06T08:18:58;101380.09;;;18.28;92.88
46464;BME280;32161;48.148;-1.554;2023-08-06T08:21:25;101375.25;;;18.50;93.47
46464;BME280;32161;48.148;-1.554;2023-08-06T08:23:53;101371.28;;;18.73;91.09
46464;BME280;32161;48.148;-1.554;2023-08-06T08:26:21;101378.50;;;18.95;87.31
46464;BME280;32161;48.148;-1.554;2023-08-06T08:28:50;101379.09;;;19.12;85.40
46464;BME280;32161;48.148;-1.554;2023-08-06T08:31:18;101374.09;;;18.94;86.26
46464;BME280;32161;48.148;-1.554;2023-08-06T08:33:46;101372.19;;;19.05;86.27
46464;BME280;32161;48.148;-1.554;2023-08-06T08:36:13;101364.78;;;19.20;88.42
46464;BME280;32161;48.148;-1.554;2023-08-06T08:38:41;101368.69;;;19.30;89.31
46464;BME280;32161;48.148;-1.554;2023-08-06T08:41:10;101364.28;;;19.34;84.18
46464;BME280;32161;48.148;-1.554;2023-08-06T08:43:39;101384.38;;;19.34;82.26
46464;BME280;32161;48.148;-1.554;2023-08-06T08:46:09;101386.84;;;19.41;81.08
46464;BME280;32161;48.148;-1.554;2023-08-06T08:48:38;101386.59;;;19.37;83.99
46464;BME280;32161;48.148;-1.554;2023-08-06T08:51:07;101383.84;;;19.37;82.94
46464;BME280;32161;48.148;-1.554;2023-08-06T08:53:35;101384.94;;;19.46;81.98
46464;BME280;32161;48.148;-1.554;2023-08-06T08:56:05;101384.13;;;19.61;82.81
46464;BME280;32161;48.148;-1.554;2023-08-06T08:58:33;101386.38;;;19.64;80.90
46464;BME280;32161;48.148;-1.554;2023-08-06T09:01:01;101386.38;;;19.74;83.45
46464;BME280;32161;48.148;-1.554;2023-08-06T09:03:30;101384.72;;;19.99;83.88
46464;BME280;32161;48.148;-1.554;2023-08-06T09:05:58;101387.44;;;20.19;79.22
46464;BME280;32161;48.148;-1.554;2023-08-06T09:08:31;101388.00;;;20.06;78.17
46464;BME280;32161;48.148;-1.554;2023-08-06T09:11:02;101394.34;;;20.02;77.90
46464;BME280;32161;48.148;-1.554;2023-08-06T09:13:30;101390.78;;;20.01;77.32
46464;BME280;32161;48.148;-1.554;2023-08-06T09:15:57;101388.53;;;20.13;76.81
46464;BME280;32161;48.148;-1.554;2023-08-06T09:18:30;101381.34;;;20.22;76.30
46464;BME280;32161;48.148;-1.554;2023-08-06T09:20:58;101390.19;;;20.19;77.02
46464;BME280;32161;48.148;-1.554;2023-08-06T09:23:30;101388.00;;;20.11;77.29
46464;BME280;32161;48.148;-1.554;2023-08-06T09:25:58;101386.38;;;19.95;77.70
46464;BME280;32161;48.148;-1.554;2023-08-06T09:28:36;101390.22;;;19.89;78.93
46464;BME280;32161;48.148;-1.554;2023-08-06T09:31:05;101389.66;;;19.97;80.73
46464;BME280;32161;48.148;-1.554;2023-08-06T09:33:37;101391.84;;;20.15;79.84
46464;BME280;32161;48.148;-1.554;2023-08-06T09:36:09;101389.34;;;20.24;78.03
46464;BME280;32161;48.148;-1.554;2023-08-06T09:38:40;101386.03;;;20.37;77.90
46464;BME280;32161;48.148;-1.554;2023-08-06T09:41:07;101401.13;;;20.76;79.18
46464;BME280;32161;48.148;-1.554;2023-08-06T09:43:42;101395.53;;;20.86;76.83
46464;BME280;32161;48.148;-1.554;2023-08-06T09:46:13;101396.09;;;20.83;72.15
46464;BME280;32161;48.148;-1.554;2023-08-06T09:48:46;101399.44;;;20.75;72.26
46464;BME280;32161;48.148;-1.554;2023-08-06T09:51:14;101402.75;;;20.71;70.12
46464;BME280;32161;48.148;-1.554;2023-08-06T09:53:42;101405.84;;;20.65;72.86
46464;BME280;32161;48.148;-1.554;2023-08-06T09:56:11;101401.97;;;20.66;72.12
46464;BME280;32161;48.148;-1.554;2023-08-06T09:58:40;101409.97;;;20.67;74.61
46464;BME280;32161;48.148;-1.554;2023-08-06T10:01:08;101403.34;;;20.63;74.57
46464;BME280;32161;48.148;-1.554;2023-08-06T10:03:37;101406.66;;;20.70;74.64
46464;BME280;32161;48.148;-1.554;2023-08-06T10:06:07;101406.66;;;20.70;73.89
46464;BME280;32161;48.148;-1.554;2023-08-06T10:08:35;101404.97;;;20.75;73.97
46464;BME280;32161;48.148;-1.554;2023-08-06T10:11:03;101414.84;;;20.96;73.50
46464;BME280;32161;48.148;-1.554;2023-08-06T10:13:32;101417.84;;;21.00;72.15
46464;BME280;32161;48.148;-1.554;2023-08-06T10:16:01;101420.25;;;21.16;75.34
46464;BME280;32161;48.148;-1.554;2023-08-06T10:18:30;101413.06;;;21.15;73.19
46464;BME280;32161;48.148;-1.554;2023-08-06T10:21:00;101404.94;;;21.39;72.77
46464;BME280;32161;48.148;-1.554;2023-08-06T10:23:36;101399.97;;;21.41;72.83
46464;BME280;32161;48.148;-1.554;2023-08-06T10:26:04;101419.56;;;21.79;70.51
46464;BME280;32161;48.148;-1.554;2023-08-06T10:28:36;101424.50;;;21.87;67.04
46464;BME280;32161;48.148;-1.554;2023-08-06T10:31:04;101427.91;;;21.74;65.93
46464;BME280;32161;48.148;-1.554;2023-08-06T10:33:42;101422.72;;;21.67;65.85
46464;BME280;32161;48.148;-1.554;2023-08-06T10:36:11;101426.31;;;21.68;65.77
46464;BME280;32161;48.148;-1.554;2023-08-06T10:38:47;101434.56;;;21.29;67.19
46464;BME280;32161;48.148;-1.554;2023-08-06T10:41:27;101424.66;;;21.23;68.20
46464;BME280;32161;48.148;-1.554;2023-08-06T10:44:06;101430.19;;;21.23;70.20
46464;BME280;32161;48.148;-1.554;2023-08-06T10:46:34;101423.22;;;21.35;70.91
46464;BME280;32161;48.148;-1.554;2023-08-06T10:49:03;101434.50;;;21.44;70.27
46464;BME280;32161;48.148;-1.554;2023-08-06T10:51:31;101426.91;;;21.60;73.38
46464;BME280;32161;48.148;-1.554;2023-08-06T10:54:00;101432.50;;;21.55;70.97
46464;BME280;32161;48.148;-1.554;2023-08-06T10:56:27;101432.38;;;21.70;67.95
46464;BME280;32161;48.148;-1.554;2023-08-06T10:58:56;101439.78;;;21.80;68.57
46464;BME280;32161;48.148;-1.554;2023-08-06T11:01:24;101439.06;;;21.98;66.27
46464;BME280;32161;48.148;-1.554;2023-08-06T11:03:55;101428.50;;;22.05;69.59
46464;BME280;32161;48.148;-1.554;2023-08-06T11:06:23;101437.25;;;22.17;66.52
46464;BME280;32161;48.148;-1.554;2023-08-06T11:08:53;101444.22;;;22.15;64.87
46464;BME280;32161;48.148;-1.554;2023-08-06T11:11:24;101438.41;;;22.11;64.50
46464;BME280;32161;48.148;-1.554;2023-08-06T11:13:52;101440.28;;;22.21;63.74
46464;BME280;32161;48.148;-1.554;2023-08-06T11:16:22;101439.41;;;21.52;60.99
46464;BME280;32161;48.148;-1.554;2023-08-06T11:18:51;101443.66;;;21.39;63.66
46464;BME280;32161;48.148;-1.554;2023-08-06T11:21:20;101441.47;;;21.31;61.51
46464;BME280;32161;48.148;-1.554;2023-08-06T11:23:48;101442.28;;;21.32;64.14
46464;BME280;32161;48.148;-1.554;2023-08-06T11:26:19;101438.16;;;21.29;65.95
46464;BME280;32161;48.148;-1.554;2023-08-06T11:28:48;101433.38;;;21.50;68.25
46464;BME280;32161;48.148;-1.554;2023-08-06T11:31:22;101439.28;;;21.73;67.72
46464;BME280;32161;48.148;-1.554;2023-08-06T11:33:50;101437.56;;;21.82;66.10
46464;BME280;32161;48.148;-1.554;2023-08-06T11:36:29;101436.97;;;21.85;63.34
46464;BME280;32161;48.148;-1.554;2023-08-06T11:38:57;101439.13;;;21.93;63.78
46464;BME280;32161;48.148;-1.554;2023-08-06T11:41:25;101435.34;;;21.84;62.86
46464;BME280;32161;48.148;-1.554;2023-08-06T11:43:56;101430.03;;;21.87;64.28
46464;BME280;32161;48.148;-1.554;2023-08-06T11:46:24;101423.91;;;21.90;65.54
46464;BME280;32161;48.148;-1.554;2023-08-06T11:48:52;101436.09;;;22.24;67.95
46464;BME280;32161;48.148;-1.554;2023-08-06T11:51:23;101427.97;;;22.03;66.56
46464;BME280;32161;48.148;-1.554;2023-08-06T11:53:54;101428.41;;;21.81;66.29
46464;BME280;32161;48.148;-1.554;2023-08-06T11:56:22;101418.53;;;22.04;64.77
46464;BME280;32161;48.148;-1.554;2023-08-06T11:58:50;101419.59;;;22.08;62.61
46464;BME280;32161;48.148;-1.554;2023-08-06T12:01:19;101419.09;;;22.06;64.85
46464;BME280;32161;48.148;-1.554;2023-08-06T12:03:46;101420.72;;;22.07;63.20
46464;BME280;32161;48.148;-1.554;2023-08-06T12:06:14;101414.38;;;22.07;63.81
46464;BME280;32161;48.148;-1.554;2023-08-06T12:08:41;101415.50;;;22.35;65.03
46464;BME280;32161;48.148;-1.554;2023-08-06T12:11:09;101416.50;;;22.44;65.62
46464;BME280;32161;48.148;-1.554;2023-08-06T12:13:37;101419.09;;;22.35;65.05
46464;BME280;32161;48.148;-1.554;2023-08-06T12:16:05;101417.31;;;22.45;64.21
46464;BME280;32161;48.148;-1.554;2023-08-06T12:18:34;101420.41;;;22.43;64.29
46464;BME280;32161;48.148;-1.554;2023-08-06T12:21:01;101417.72;;;22.33;63.49
46464;BME280;32161;48.148;-1.554;2023-08-06T12:23:29;101414.59;;;22.15;61.72
46464;BME280;32161;48.148;-1.554;2023-08-06T12:25:59;101414.63;;;22.10;63.32
46464;BME280;32161;48.148;-1.554;2023-08-06T12:28:26;101412.44;;;22.02;63.53
46464;BME280;32161;48.148;-1.554;2023-08-06T12:30:54;101406.69;;;21.99;63.87
46464;BME280;32161;48.148;-1.554;2023-08-06T12:33:22;101407.53;;;21.99;65.55
46464;BME280;32161;48.148;-1.554;2023-08-06T12:35:51;101410.78;;;22.06;64.34
46464;BME280;32161;48.148;-1.554;2023-08-06T12:38:20;101418.72;;;22.18;65.31
46464;BME280;32161;48.148;-1.554;2023-08-06T12:40:48;101415.72;;;22.14;64.24
46464;BME280;32161;48.148;-1.554;2023-08-06T12:43:15;101414.03;;;22.13;61.92
46464;BME280;32161;48.148;-1.554;2023-08-06T12:45:42;101407.28;;;22.25;62.86